sensor_id;sensor_type;location;lat;lon;timestamp;P1;durP1;ratioP1;P2;durP2;ratioP2
80404;SDS011;69733;48.744;9.176;2023-06-26T00:02:06;9.50;;;5.67;;
80404;SDS011;69733;48.744;9.176;2023-06-26T00:04:32;9.55;;;5.68;;
80404;SDS011;69733;48.744;9.176;2023-06-26T00:06:57;8.68;;;5.70;;
80404;SDS011;69733;48.744;9.176;2023-06-26T00:09:22;7.97;;;4.37;;
80404;SDS011;69733;48.744;9.176;2023-06-26T00:11:51;8.48;;;5.18;;
80404;SDS011;69733;48.744;9.176;2023-06-26T00:14:17;7.57;;;4.78;;
80404;SDS011;69733;48.744;9.176;2023-06-26T00:16:45;9.07;;;5.25;;
80404;SDS011;69733;48.744;9.176;2023-06-26T00:19:14;8.15;;;4.93;;
80404;SDS011;69733;48.744;9.176;2023-06-26T00:21:40;7.40;;;4.85;;
80404;SDS011;69733;48.744;9.176;2023-06-26T00:24:06;8.85;;;5.30;;
80404;SDS011;69733;48.744;9.176;2023-06-26T00:26:31;9.20;;;6.25;;
80404;SDS011;69733;48.744;9.176;2023-06-26T00:28:56;9.20;;;5.35;;
80404;SDS011;69733;48.744;9.176;2023-06-26T00:31:22;9.63;;;5.70;;
80404;SDS011;69733;48.744;9.176;2023-06-26T00:33:47;9.35;;;5.57;;
80404;SDS011;69733;48.744;9.176;2023-06-26T00:36:12;8.67;;;5.30;;
80404;SDS011;69733;48.744;9.176;2023-06-26T00:38:44;8.85;;;5.53;;
80404;SDS011;69733;48.744;9.176;2023-06-26T00:41:09;9.68;;;5.60;;
80404;SDS011;69733;48.744;9.176;2023-06-26T00:43:37;9.77;;;5.93;;
80404;SDS011;69733;48.744;9.176;2023-06-26T00:46:03;7.65;;;4.90;;
80404;SDS011;69733;48.744;9.176;2023-06-26T00:48:28;9.05;;;5.60;;
80404;SDS011;69733;48.744;9.176;2023-06-26T00:50:54;8.27;;;5.10;;
80404;SDS011;69733;48.744;9.176;2023-06-26T00:53:20;8.52;;;5.50;;
80404;SDS011;69733;48.744;9.176;2023-06-26T00:55:46;9.02;;;5.82;;
80404;SDS011;69733;48.744;9.176;2023-06-26T00:58:12;9.23;;;6.10;;
80404;SDS011;69733;48.744;9.176;2023-06-26T01:00:37;8.50;;;5.85;;
80404;SDS011;69733;48.744;9.176;2023-06-26T01:03:03;7.72;;;4.93;;
80404;SDS011;69733;48.744;9.176;2023-06-26T01:05:28;7.90;;;5.30;;
80404;SDS011;69733;48.744;9.176;2023-06-26T01:07:54;7.90;;;5.45;;
80404;SDS011;69733;48.744;9.176;2023-06-26T01:10:22;9.07;;;5.55;;
80404;SDS011;69733;48.744;9.176;2023-06-26T01:12:47;8.77;;;5.72;;
80404;SDS011;69733;48.744;9.176;2023-06-26T01:15:13;7.75;;;4.72;;
80404;SDS011;69733;48.744;9.176;2023-06-26T01:17:38;8.20;;;5.63;;
80404;SDS011;69733;48.744;9.176;2023-06-26T01:20:05;7.60;;;4.70;;
80404;SDS011;69733;48.744;9.176;2023-06-26T01:25:21;8.90;;;5.43;;
80404;SDS011;69733;48.744;9.176;2023-06-26T01:28:16;8.52;;;5.88;;
80404;SDS011;69733;48.744;9.176;2023-06-26T01:30:43;8.35;;;4.70;;
80404;SDS011;69733;48.744;9.176;2023-06-26T01:33:10;7.13;;;5.13;;
80404;SDS011;69733;48.744;9.176;2023-06-26T01:35:37;9.13;;;4.75;;
80404;SDS011;69733;48.744;9.176;2023-06-26T01:38:15;7.88;;;4.95;;
80404;SDS011;69733;48.744;9.176;2023-06-26T01:40:45;8.02;;;4.90;;
80404;SDS011;69733;48.744;9.176;2023-06-26T01:43:19;9.10;;;5.32;;
80404;SDS011;69733;48.744;9.176;2023-06-26T01:45:50;9.23;;;5.28;;
80404;SDS011;69733;48.744;9.176;2023-06-26T01:48:18;8.20;;;4.90;;
80404;SDS011;69733;48.744;9.176;2023-06-26T01:50:50;7.72;;;4.80;;
80404;SDS011;69733;48.744;9.176;2023-06-26T01:53:18;8.95;;;5.15;;
80404;SDS011;69733;48.744;9.176;2023-06-26T01:55:59;9.27;;;5.30;;
80404;SDS011;69733;48.744;9.176;2023-06-26T01:58:28;9.32;;;6.10;;
80404;SDS011;69733;48.744;9.176;2023-06-26T02:00:54;7.85;;;4.82;;
80404;SDS011;69733;48.744;9.176;2023-06-26T02:03:20;8.45;;;5.75;;
80404;SDS011;69733;48.744;9.176;2023-06-26T02:05:45;8.45;;;5.72;;
80404;SDS011;69733;48.744;9.176;2023-06-26T02:08:14;8.60;;;5.80;;
80404;SDS011;69733;48.744;9.176;2023-06-26T02:10:40;7.32;;;5.50;;
80404;SDS011;69733;48.744;9.176;2023-06-26T02:13:05;7.15;;;5.07;;
80404;SDS011;69733;48.744;9.176;2023-06-26T02:15:31;9.05;;;4.82;;
80404;SDS011;69733;48.744;9.176;2023-06-26T02:17:56;8.85;;;5.78;;
80404;SDS011;69733;48.744;9.176;2023-06-26T02:20:21;8.13;;;5.82;;
80404;SDS011;69733;48.744;9.176;2023-06-26T02:22:47;7.23;;;4.30;;
80404;SDS011;69733;48.744;9.176;2023-06-26T02:25:12;8.30;;;5.63;;
80404;SDS011;69733;48.744;9.176;2023-06-26T02:27:38;8.67;;;5.40;;
80404;SDS011;69733;48.744;9.176;2023-06-26T02:30:03;8.02;;;5.30;;
80404;SDS011;69733;48.744;9.176;2023-06-26T02:32:29;9.02;;;5.75;;
80404;SDS011;69733;48.744;9.176;2023-06-26T02:34:55;9.38;;;5.35;;
80404;SDS011;69733;48.744;9.176;2023-06-26T02:37:20;6.77;;;4.97;;
80404;SDS011;69733;48.744;9.176;2023-06-26T02:39:45;8.63;;;5.43;;
80404;SDS011;69733;48.744;9.176;2023-06-26T02:42:10;9.55;;;5.82;;
80404;SDS011;69733;48.744;9.176;2023-06-26T02:44:36;9.02;;;5.95;;
80404;SDS011;69733;48.744;9.176;2023-06-26T02:47:01;8.63;;;5.25;;
80404;SDS011;69733;48.744;9.176;2023-06-26T02:49:27;7.65;;;5.40;;
80404;SDS011;69733;48.744;9.176;2023-06-26T02:51:55;7.78;;;5.25;;
80404;SDS011;69733;48.744;9.176;2023-06-26T02:54:20;8.70;;;4.90;;
80404;SDS011;69733;48.744;9.176;2023-06-26T02:56:45;8.97;;;6.13;;
80404;SDS011;69733;48.744;9.176;2023-06-26T02:59:11;7.32;;;4.68;;
80404;SDS011;69733;48.744;9.176;2023-06-26T03:01:36;8.73;;;5.00;;
80404;SDS011;69733;48.744;9.176;2023-06-26T03:04:02;8.95;;;5.00;;
80404;SDS011;69733;48.744;9.176;2023-06-26T03:06:27;7.85;;;4.85;;
80404;SDS011;69733;48.744;9.176;2023-06-26T03:08:52;8.40;;;5.25;;
80404;SDS011;69733;48.744;9.176;2023-06-26T03:11:19;10.52;;;6.20;;
80404;SDS011;69733;48.744;9.176;2023-06-26T03:13:47;8.80;;;5.38;;
80404;SDS011;69733;48.744;9.176;2023-06-26T03:16:12;9.73;;;6.07;;
80404;SDS011;69733;48.744;9.176;2023-06-26T03:18:38;8.63;;;5.40;;
80404;SDS011;69733;48.744;9.176;2023-06-26T03:21:03;7.95;;;4.93;;
80404;SDS011;69733;48.744;9.176;2023-06-26T03:23:28;6.30;;;4.53;;
80404;SDS011;69733;48.744;9.176;2023-06-26T03:25:57;8.52;;;5.13;;
80404;SDS011;69733;48.744;9.176;2023-06-26T03:28:22;7.90;;;4.93;;
80404;SDS011;69733;48.744;9.176;2023-06-26T03:30:47;7.73;;;5.10;;
80404;SDS011;69733;48.744;9.176;2023-06-26T03:33:12;7.30;;;4.90;;
80404;SDS011;69733;48.744;9.176;2023-06-26T03:35:38;6.93;;;4.78;;
80404;SDS011;69733;48.744;9.176;2023-06-26T03:38:06;8.68;;;4.85;;
80404;SDS011;69733;48.744;9.176;2023-06-26T03:40:31;8.25;;;4.93;;
80404;SDS011;69733;48.744;9.176;2023-06-26T03:42:57;9.05;;;5.55;;
80404;SDS011;69733;48.744;9.176;2023-06-26T03:45:22;8.35;;;4.70;;
80404;SDS011;69733;48.744;9.176;2023-06-26T03:47:47;8.67;;;5.93;;
80404;SDS011;69733;48.744;9.176;2023-06-26T03:50:17;7.47;;;4.93;;
80404;SDS011;69733;48.744;9.176;2023-06-26T03:55:08;7.63;;;5.90;;
80404;SDS011;69733;48.744;9.176;2023-06-26T03:57:33;8.95;;;5.88;;
80404;SDS011;69733;48.744;9.176;2023-06-26T03:59:59;8.00;;;4.78;;
80404;SDS011;69733;48.744;9.176;2023-06-26T04:02:24;10.18;;;4.60;;
80404;SDS011;69733;48.744;9.176;2023-06-26T04:04:49;8.80;;;5.53;;
80404;SDS011;69733;48.744;9.176;2023-06-26T04:07:15;8.57;;;5.50;;
80404;SDS011;69733;48.744;9.176;2023-06-26T04:09:40;7.80;;;4.72;;
80404;SDS011;69733;48.744;9.176;2023-06-26T04:12:05;6.97;;;4.95;;
80404;SDS011;69733;48.744;9.176;2023-06-26T04:14:34;8.52;;;4.90;;
80404;SDS011;69733;48.744;9.176;2023-06-26T04:16:59;8.05;;;5.00;;
80404;SDS011;69733;48.744;9.176;2023-06-26T04:19:34;7.97;;;5.13;;
80404;SDS011;69733;48.744;9.176;2023-06-26T04:22:01;8.15;;;5.18;;
80404;SDS011;69733;48.744;9.176;2023-06-26T04:24:26;9.20;;;5.95;;
80404;SDS011;69733;48.744;9.176;2023-06-26T04:26:51;7.30;;;5.37;;
80404;SDS011;69733;48.744;9.176;2023-06-26T04:29:17;7.97;;;5.25;;
80404;SDS011;69733;48.744;9.176;2023-06-26T04:31:42;8.53;;;5.30;;
80404;SDS011;69733;48.744;9.176;2023-06-26T04:34:30;9.23;;;5.57;;
80404;SDS011;69733;48.744;9.176;2023-06-26T04:37:00;10.13;;;5.60;;
80404;SDS011;69733;48.744;9.176;2023-06-26T04:39:25;8.73;;;5.10;;
80404;SDS011;69733;48.744;9.176;2023-06-26T04:41:50;8.32;;;4.90;;
80404;SDS011;69733;48.744;9.176;2023-06-26T04:44:16;6.95;;;4.35;;
80404;SDS011;69733;48.744;9.176;2023-06-26T04:46:44;7.55;;;5.25;;
80404;SDS011;69733;48.744;9.176;2023-06-26T04:49:09;8.13;;;5.30;;
80404;SDS011;69733;48.744;9.176;2023-06-26T04:54:15;7.82;;;5.28;;
80404;SDS011;69733;48.744;9.176;2023-06-26T04:56:43;7.70;;;4.68;;
80404;SDS011;69733;48.744;9.176;2023-06-26T04:59:08;7.93;;;5.18;;
80404;SDS011;69733;48.744;9.176;2023-06-26T05:01:38;7.28;;;4.85;;
80404;SDS011;69733;48.744;9.176;2023-06-26T05:04:04;7.28;;;5.03;;
80404;SDS011;69733;48.744;9.176;2023-06-26T05:06:33;7.95;;;6.30;;
80404;SDS011;69733;48.744;9.176;2023-06-26T05:08:58;6.75;;;5.65;;
80404;SDS011;69733;48.744;9.176;2023-06-26T05:11:24;9.23;;;5.18;;
80404;SDS011;69733;48.744;9.176;2023-06-26T05:13:50;7.55;;;5.55;;
80404;SDS011;69733;48.744;9.176;2023-06-26T05:16:18;7.40;;;5.05;;
80404;SDS011;69733;48.744;9.176;2023-06-26T05:18:44;6.53;;;5.45;;
80404;SDS011;69733;48.744;9.176;2023-06-26T05:21:09;9.63;;;5.60;;
80404;SDS011;69733;48.744;9.176;2023-06-26T05:23:34;7.55;;;6.38;;
80404;SDS011;69733;48.744;9.176;2023-06-26T05:26:00;7.72;;;6.25;;
80404;SDS011;69733;48.744;9.176;2023-06-26T05:28:27;10.70;;;5.38;;
80404;SDS011;69733;48.744;9.176;2023-06-26T05:30:54;8.30;;;5.90;;
80404;SDS011;69733;48.744;9.176;2023-06-26T05:33:21;7.82;;;6.13;;
80404;SDS011;69733;48.744;9.176;2023-06-26T05:35:48;9.48;;;5.82;;
80404;SDS011;69733;48.744;9.176;2023-06-26T05:38:16;7.35;;;6.25;;
80404;SDS011;69733;48.744;9.176;2023-06-26T05:40:41;8.20;;;5.85;;
80404;SDS011;69733;48.744;9.176;2023-06-26T05:43:07;6.80;;;6.00;;
80404;SDS011;69733;48.744;9.176;2023-06-26T05:45:33;8.00;;;5.90;;
80404;SDS011;69733;48.744;9.176;2023-06-26T05:47:58;7.47;;;5.68;;
80404;SDS011;69733;48.744;9.176;2023-06-26T05:50:24;7.45;;;6.13;;
80404;SDS011;69733;48.744;9.176;2023-06-26T05:52:51;7.03;;;5.80;;
80404;SDS011;69733;48.744;9.176;2023-06-26T05:55:17;7.65;;;5.85;;
80404;SDS011;69733;48.744;9.176;2023-06-26T05:57:42;7.68;;;6.30;;
80404;SDS011;69733;48.744;9.176;2023-06-26T06:00:08;9.73;;;5.75;;
80404;SDS011;69733;48.744;9.176;2023-06-26T06:02:37;7.43;;;5.70;;
80404;SDS011;69733;48.744;9.176;2023-06-26T06:05:03;7.50;;;5.95;;
80404;SDS011;69733;48.744;9.176;2023-06-26T06:07:28;6.88;;;6.15;;
80404;SDS011;69733;48.744;9.176;2023-06-26T06:09:54;7.60;;;6.07;;
80404;SDS011;69733;48.744;9.176;2023-06-26T06:12:19;8.07;;;5.78;;
80404;SDS011;69733;48.744;9.176;2023-06-26T06:14:44;8.13;;;6.15;;
80404;SDS011;69733;48.744;9.176;2023-06-26T06:17:13;8.05;;;6.20;;
80404;SDS011;69733;48.744;9.176;2023-06-26T06:19:38;8.53;;;6.27;;
80404;SDS011;69733;48.744;9.176;2023-06-26T06:22:03;6.80;;;5.80;;
80404;SDS011;69733;48.744;9.176;2023-06-26T06:24:31;7.22;;;5.97;;
80404;SDS011;69733;48.744;9.176;2023-06-26T06:26:57;6.87;;;6.03;;
80404;SDS011;69733;48.744;9.176;2023-06-26T06:29:22;8.10;;;6.23;;
80404;SDS011;69733;48.744;9.176;2023-06-26T06:31:47;7.40;;;6.13;;
80404;SDS011;69733;48.744;9.176;2023-06-26T06:34:13;8.25;;;6.25;;
80404;SDS011;69733;48.744;9.176;2023-06-26T06:36:38;8.40;;;6.57;;
80404;SDS011;69733;48.744;9.176;2023-06-26T06:39:03;6.03;;;5.43;;
80404;SDS011;69733;48.744;9.176;2023-06-26T06:41:29;7.43;;;6.38;;
80404;SDS011;69733;48.744;9.176;2023-06-26T06:43:54;6.57;;;5.80;;
80404;SDS011;69733;48.744;9.176;2023-06-26T06:46:20;7.68;;;5.82;;
80404;SDS011;69733;48.744;9.176;2023-06-26T06:48:45;6.70;;;6.10;;
80404;SDS011;69733;48.744;9.176;2023-06-26T06:51:11;7.32;;;5.75;;
80404;SDS011;69733;48.744;9.176;2023-06-26T06:53:37;6.22;;;5.63;;
80404;SDS011;69733;48.744;9.176;2023-06-26T06:56:03;7.80;;;5.47;;
80404;SDS011;69733;48.744;9.176;2023-06-26T06:58:28;6.82;;;5.80;;
80404;SDS011;69733;48.744;9.176;2023-06-26T07:00:54;6.25;;;5.07;;
80404;SDS011;69733;48.744;9.176;2023-06-26T07:03:19;6.55;;;5.53;;
80404;SDS011;69733;48.744;9.176;2023-06-26T07:05:46;6.07;;;5.47;;
80404;SDS011;69733;48.744;9.176;2023-06-26T07:08:11;5.90;;;5.30;;
80404;SDS011;69733;48.744;9.176;2023-06-26T07:10:40;6.90;;;5.50;;
80404;SDS011;69733;48.744;9.176;2023-06-26T07:13:05;5.47;;;4.90;;
80404;SDS011;69733;48.744;9.176;2023-06-26T07:15:30;5.90;;;5.23;;
80404;SDS011;69733;48.744;9.176;2023-06-26T07:17:56;6.43;;;5.45;;
80404;SDS011;69733;48.744;9.176;2023-06-26T07:20:21;6.47;;;5.88;;
80404;SDS011;69733;48.744;9.176;2023-06-26T07:22:46;6.38;;;5.40;;
80404;SDS011;69733;48.744;9.176;2023-06-26T07:25:13;6.88;;;6.18;;
80404;SDS011;69733;48.744;9.176;2023-06-26T07:27:39;6.20;;;5.60;;
80404;SDS011;69733;48.744;9.176;2023-06-26T07:30:05;6.15;;;5.55;;
80404;SDS011;69733;48.744;9.176;2023-06-26T07:32:33;5.82;;;5.22;;
80404;SDS011;69733;48.744;9.176;2023-06-26T07:34:59;6.03;;;5.05;;
80404;SDS011;69733;48.744;9.176;2023-06-26T07:37:30;6.40;;;5.80;;
80404;SDS011;69733;48.744;9.176;2023-06-26T07:39:57;6.60;;;6.03;;
80404;SDS011;69733;48.744;9.176;2023-06-26T07:42:22;6.93;;;6.13;;
80404;SDS011;69733;48.744;9.176;2023-06-26T07:44:48;6.20;;;5.50;;
80404;SDS011;69733;48.744;9.176;2023-06-26T07:47:13;6.28;;;5.68;;
80404;SDS011;69733;48.744;9.176;2023-06-26T07:49:39;6.65;;;6.05;;
80404;SDS011;69733;48.744;9.176;2023-06-26T07:52:05;5.82;;;5.22;;
80404;SDS011;69733;48.744;9.176;2023-06-26T07:54:34;6.15;;;5.55;;
80404;SDS011;69733;48.744;9.176;2023-06-26T07:57:00;7.38;;;6.68;;
80404;SDS011;69733;48.744;9.176;2023-06-26T07:59:27;7.10;;;6.45;;
80404;SDS011;69733;48.744;9.176;2023-06-26T08:01:54;6.07;;;5.50;;
80404;SDS011;69733;48.744;9.176;2023-06-26T08:04:21;7.50;;;5.93;;
80404;SDS011;69733;48.744;9.176;2023-06-26T08:06:52;6.35;;;5.57;;
80404;SDS011;69733;48.744;9.176;2023-06-26T08:09:19;6.32;;;5.72;;
80404;SDS011;69733;48.744;9.176;2023-06-26T08:11:49;6.13;;;5.53;;
80404;SDS011;69733;48.744;9.176;2023-06-26T08:14:15;6.65;;;6.05;;
80404;SDS011;69733;48.744;9.176;2023-06-26T08:16:41;5.97;;;4.65;;
80404;SDS011;69733;48.744;9.176;2023-06-26T08:19:08;5.72;;;5.15;;
80404;SDS011;69733;48.744;9.176;2023-06-26T08:21:34;6.40;;;5.80;;
80404;SDS011;69733;48.744;9.176;2023-06-26T08:24:00;6.63;;;5.93;;
80404;SDS011;69733;48.744;9.176;2023-06-26T08:26:25;6.10;;;5.55;;
80404;SDS011;69733;48.744;9.176;2023-06-26T08:28:56;6.05;;;5.45;;
80404;SDS011;69733;48.744;9.176;2023-06-26T08:31:22;6.83;;;6.20;;
80404;SDS011;69733;48.744;9.176;2023-06-26T08:33:47;7.05;;;6.35;;
80404;SDS011;69733;48.744;9.176;2023-06-26T08:36:12;6.93;;;6.22;;
80404;SDS011;69733;48.744;9.176;2023-06-26T08:38:38;5.40;;;4.90;;
80404;SDS011;69733;48.744;9.176;2023-06-26T08:41:09;6.93;;;6.28;;
80404;SDS011;69733;48.744;9.176;2023-06-26T08:43:34;5.53;;;4.88;;
80404;SDS011;69733;48.744;9.176;2023-06-26T08:46:01;6.25;;;5.65;;
80404;SDS011;69733;48.744;9.176;2023-06-26T08:48:28;6.32;;;5.82;;
80404;SDS011;69733;48.744;9.176;2023-06-26T08:50:56;9.68;;;6.53;;
80404;SDS011;69733;48.744;9.176;2023-06-26T08:53:26;6.55;;;5.90;;
80404;SDS011;69733;48.744;9.176;2023-06-26T08:55:56;5.47;;;5.00;;
80404;SDS011;69733;48.744;9.176;2023-06-26T08:58:23;9.80;;;5.93;;
80404;SDS011;69733;48.744;9.176;2023-06-26T09:00:48;6.20;;;5.70;;
80404;SDS011;69733;48.744;9.176;2023-06-26T09:03:14;6.20;;;5.60;;
80404;SDS011;69733;48.744;9.176;2023-06-26T09:05:40;7.60;;;5.75;;
80404;SDS011;69733;48.744;9.176;2023-06-26T09:08:06;6.57;;;5.97;;
80404;SDS011;69733;48.744;9.176;2023-06-26T09:10:32;7.13;;;6.50;;
80404;SDS011;69733;48.744;9.176;2023-06-26T09:12:58;5.90;;;5.28;;
80404;SDS011;69733;48.744;9.176;2023-06-26T09:15:24;6.22;;;5.72;;
80404;SDS011;69733;48.744;9.176;2023-06-26T09:17:49;5.13;;;4.63;;
80404;SDS011;69733;48.744;9.176;2023-06-26T09:20:37;6.47;;;5.88;;
80404;SDS011;69733;48.744;9.176;2023-06-26T09:23:03;5.68;;;5.18;;
80404;SDS011;69733;48.744;9.176;2023-06-26T09:25:29;6.20;;;5.60;;
80404;SDS011;69733;48.744;9.176;2023-06-26T09:27:55;7.10;;;6.20;;
80404;SDS011;69733;48.744;9.176;2023-06-26T09:30:21;6.57;;;5.65;;
80404;SDS011;69733;48.744;9.176;2023-06-26T09:32:49;5.75;;;5.20;;
80404;SDS011;69733;48.744;9.176;2023-06-26T09:35:15;6.07;;;5.47;;
80404;SDS011;69733;48.744;9.176;2023-06-26T09:37:42;10.05;;;6.05;;
80404;SDS011;69733;48.744;9.176;2023-06-26T09:40:08;6.05;;;4.82;;
80404;SDS011;69733;48.744;9.176;2023-06-26T09:42:34;7.82;;;5.90;;
80404;SDS011;69733;48.744;9.176;2023-06-26T09:45:00;9.40;;;5.72;;
80404;SDS011;69733;48.744;9.176;2023-06-26T09:47:25;5.80;;;5.15;;
80404;SDS011;69733;48.744;9.176;2023-06-26T09:49:51;6.43;;;5.65;;
80404;SDS011;69733;48.744;9.176;2023-06-26T09:52:39;6.10;;;5.30;;
80404;SDS011;69733;48.744;9.176;2023-06-26T09:55:09;6.20;;;5.60;;
80404;SDS011;69733;48.744;9.176;2023-06-26T09:57:35;5.82;;;5.30;;
80404;SDS011;69733;48.744;9.176;2023-06-26T10:00:04;6.07;;;5.47;;
80404;SDS011;69733;48.744;9.176;2023-06-26T10:02:30;5.60;;;4.80;;
80404;SDS011;69733;48.744;9.176;2023-06-26T10:04:55;7.18;;;5.03;;
80404;SDS011;69733;48.744;9.176;2023-06-26T10:07:21;8.77;;;5.90;;
80404;SDS011;69733;48.744;9.176;2023-06-26T10:09:47;6.63;;;5.93;;
80404;SDS011;69733;48.744;9.176;2023-06-26T10:12:28;6.22;;;5.63;;
80404;SDS011;69733;48.744;9.176;2023-06-26T10:14:55;5.75;;;5.15;;
80404;SDS011;69733;48.744;9.176;2023-06-26T10:17:22;6.22;;;5.63;;
80404;SDS011;69733;48.744;9.176;2023-06-26T10:19:52;5.82;;;5.32;;
80404;SDS011;69733;48.744;9.176;2023-06-26T10:22:21;5.80;;;5.00;;
80404;SDS011;69733;48.744;9.176;2023-06-26T10:24:50;6.40;;;5.55;;
80404;SDS011;69733;48.744;9.176;2023-06-26T10:27:18;5.78;;;5.18;;
80404;SDS011;69733;48.744;9.176;2023-06-26T10:29:44;5.95;;;5.32;;
80404;SDS011;69733;48.744;9.176;2023-06-26T10:32:14;5.95;;;5.35;;
80404;SDS011;69733;48.744;9.176;2023-06-26T10:34:41;6.40;;;5.53;;
80404;SDS011;69733;48.744;9.176;2023-06-26T10:37:08;5.70;;;5.10;;
80404;SDS011;69733;48.744;9.176;2023-06-26T10:39:54;7.70;;;6.37;;
80404;SDS011;69733;48.744;9.176;2023-06-26T10:42:34;7.18;;;5.38;;
80404;SDS011;69733;48.744;9.176;2023-06-26T10:45:11;6.45;;;5.57;;
80404;SDS011;69733;48.744;9.176;2023-06-26T10:47:40;6.43;;;5.40;;
80404;SDS011;69733;48.744;9.176;2023-06-26T10:50:20;6.97;;;5.57;;
80404;SDS011;69733;48.744;9.176;2023-06-26T10:55:56;6.32;;;5.53;;
80404;SDS011;69733;48.744;9.176;2023-06-26T11:03:47;7.40;;;5.25;;
80404;SDS011;69733;48.744;9.176;2023-06-26T11:06:29;6.35;;;5.22;;
80404;SDS011;69733;48.744;9.176;2023-06-26T11:09:09;6.85;;;5.90;;
80404;SDS011;69733;48.744;9.176;2023-06-26T11:14:31;8.50;;;5.65;;
80404;SDS011;69733;48.744;9.176;2023-06-26T11:17:02;7.45;;;6.68;;
80404;SDS011;69733;48.744;9.176;2023-06-26T11:19:29;7.00;;;5.25;;
80404;SDS011;69733;48.744;9.176;2023-06-26T11:21:59;7.00;;;5.22;;
80404;SDS011;69733;48.744;9.176;2023-06-26T11:24:27;6.88;;;6.18;;
80404;SDS011;69733;48.744;9.176;2023-06-26T11:26:54;7.82;;;6.53;;
80404;SDS011;69733;48.744;9.176;2023-06-26T11:29:25;7.18;;;5.80;;
80404;SDS011;69733;48.744;9.176;2023-06-26T11:31:57;6.82;;;5.93;;
80404;SDS011;69733;48.744;9.176;2023-06-26T11:34:24;9.65;;;5.85;;
80404;SDS011;69733;48.744;9.176;2023-06-26T11:36:56;8.38;;;6.18;;
80404;SDS011;69733;48.744;9.176;2023-06-26T11:39:22;7.57;;;6.40;;
80404;SDS011;69733;48.744;9.176;2023-06-26T11:41:47;7.28;;;5.68;;
80404;SDS011;69733;48.744;9.176;2023-06-26T11:44:13;6.18;;;4.95;;
80404;SDS011;69733;48.744;9.176;2023-06-26T11:46:40;6.55;;;5.75;;
80404;SDS011;69733;48.744;9.176;2023-06-26T11:49:07;6.28;;;5.20;;
80404;SDS011;69733;48.744;9.176;2023-06-26T11:51:33;9.10;;;6.20;;
80404;SDS011;69733;48.744;9.176;2023-06-26T11:59:00;8.13;;;5.85;;
80404;SDS011;69733;48.744;9.176;2023-06-26T12:04:02;8.88;;;6.30;;
80404;SDS011;69733;48.744;9.176;2023-06-26T12:06:33;6.63;;;5.75;;
80404;SDS011;69733;48.744;9.176;2023-06-26T12:09:04;7.13;;;6.20;;
80404;SDS011;69733;48.744;9.176;2023-06-26T12:11:31;6.85;;;5.35;;
80404;SDS011;69733;48.744;9.176;2023-06-26T12:13:58;7.05;;;5.60;;
80404;SDS011;69733;48.744;9.176;2023-06-26T12:16:24;8.25;;;5.45;;
80404;SDS011;69733;48.744;9.176;2023-06-26T12:18:50;5.75;;;5.07;;
80404;SDS011;69733;48.744;9.176;2023-06-26T12:24:09;8.27;;;6.30;;
80404;SDS011;69733;48.744;9.176;2023-06-26T12:26:41;11.20;;;5.50;;
80404;SDS011;69733;48.744;9.176;2023-06-26T12:29:09;6.72;;;4.88;;
80404;SDS011;69733;48.744;9.176;2023-06-26T12:34:13;7.07;;;5.53;;
80404;SDS011;69733;48.744;9.176;2023-06-26T12:37:09;8.63;;;5.88;;
80404;SDS011;69733;48.744;9.176;2023-06-26T12:39:48;7.82;;;6.70;;
80404;SDS011;69733;48.744;9.176;2023-06-26T12:42:16;7.75;;;6.43;;
80404;SDS011;69733;48.744;9.176;2023-06-26T12:44:43;9.85;;;5.75;;
80404;SDS011;69733;48.744;9.176;2023-06-26T12:47:08;7.82;;;5.45;;
80404;SDS011;69733;48.744;9.176;2023-06-26T12:49:38;6.70;;;5.05;;
80404;SDS011;69733;48.744;9.176;2023-06-26T12:52:05;8.48;;;5.28;;
80404;SDS011;69733;48.744;9.176;2023-06-26T12:54:35;8.13;;;5.93;;
80404;SDS011;69733;48.744;9.176;2023-06-26T12:57:02;7.57;;;6.18;;
80404;SDS011;69733;48.744;9.176;2023-06-26T12:59:29;8.07;;;5.68;;
80404;SDS011;69733;48.744;9.176;2023-06-26T13:01:54;7.82;;;5.80;;
80404;SDS011;69733;48.744;9.176;2023-06-26T13:04:20;10.00;;;6.63;;
80404;SDS011;69733;48.744;9.176;2023-06-26T13:06:45;8.60;;;6.30;;
80404;SDS011;69733;48.744;9.176;2023-06-26T13:09:11;6.50;;;5.85;;
80404;SDS011;69733;48.744;9.176;2023-06-26T13:11:37;7.30;;;5.68;;
80404;SDS011;69733;48.744;9.176;2023-06-26T13:14:02;6.53;;;5.10;;
80404;SDS011;69733;48.744;9.176;2023-06-26T13:16:28;7.32;;;5.10;;
80404;SDS011;69733;48.744;9.176;2023-06-26T13:18:54;7.03;;;4.80;;
80404;SDS011;69733;48.744;9.176;2023-06-26T13:21:20;7.05;;;5.05;;
80404;SDS011;69733;48.744;9.176;2023-06-26T13:23:45;8.00;;;6.50;;
80404;SDS011;69733;48.744;9.176;2023-06-26T13:26:11;6.93;;;5.80;;
80404;SDS011;69733;48.744;9.176;2023-06-26T13:28:37;7.18;;;5.32;;
80404;SDS011;69733;48.744;9.176;2023-06-26T13:31:03;6.32;;;4.60;;
80404;SDS011;69733;48.744;9.176;2023-06-26T13:33:29;9.52;;;5.65;;
80404;SDS011;69733;48.744;9.176;2023-06-26T13:35:55;5.70;;;4.82;;
80404;SDS011;69733;48.744;9.176;2023-06-26T13:38:21;6.50;;;5.80;;
80404;SDS011;69733;48.744;9.176;2023-06-26T13:40:54;6.43;;;5.18;;
80404;SDS011;69733;48.744;9.176;2023-06-26T13:43:22;7.35;;;4.72;;
80404;SDS011;69733;48.744;9.176;2023-06-26T13:45:48;7.25;;;4.93;;
80404;SDS011;69733;48.744;9.176;2023-06-26T13:48:14;6.22;;;4.40;;
80404;SDS011;69733;48.744;9.176;2023-06-26T13:50:39;7.10;;;5.05;;
80404;SDS011;69733;48.744;9.176;2023-06-26T13:53:04;6.18;;;4.68;;
80404;SDS011;69733;48.744;9.176;2023-06-26T13:55:30;7.05;;;4.80;;
80404;SDS011;69733;48.744;9.176;2023-06-26T13:57:56;7.10;;;4.35;;
80404;SDS011;69733;48.744;9.176;2023-06-26T14:00:21;6.63;;;4.45;;
80404;SDS011;69733;48.744;9.176;2023-06-26T14:02:50;5.47;;;3.70;;
80404;SDS011;69733;48.744;9.176;2023-06-26T14:05:21;7.53;;;4.20;;
80404;SDS011;69733;48.744;9.176;2023-06-26T14:07:47;7.10;;;4.22;;
80404;SDS011;69733;48.744;9.176;2023-06-26T14:10:15;7.20;;;4.45;;
80404;SDS011;69733;48.744;9.176;2023-06-26T14:12:40;6.93;;;4.07;;
80404;SDS011;69733;48.744;9.176;2023-06-26T14:15:06;6.68;;;4.22;;
80404;SDS011;69733;48.744;9.176;2023-06-26T14:17:31;5.85;;;3.90;;
80404;SDS011;69733;48.744;9.176;2023-06-26T14:19:57;5.07;;;4.00;;
80404;SDS011;69733;48.744;9.176;2023-06-26T14:22:22;5.82;;;3.90;;
80404;SDS011;69733;48.744;9.176;2023-06-26T14:24:48;4.97;;;3.53;;
80404;SDS011;69733;48.744;9.176;2023-06-26T14:27:14;4.80;;;3.22;;
80404;SDS011;69733;48.744;9.176;2023-06-26T14:29:39;6.80;;;3.85;;
80404;SDS011;69733;48.744;9.176;2023-06-26T14:32:05;5.10;;;2.90;;
80404;SDS011;69733;48.744;9.176;2023-06-26T14:34:31;4.43;;;3.10;;
80404;SDS011;69733;48.744;9.176;2023-06-26T14:36:56;5.13;;;3.80;;
80404;SDS011;69733;48.744;9.176;2023-06-26T14:39:22;7.65;;;3.35;;
80404;SDS011;69733;48.744;9.176;2023-06-26T14:41:47;5.38;;;3.47;;
80404;SDS011;69733;48.744;9.176;2023-06-26T14:44:13;6.22;;;4.07;;
80404;SDS011;69733;48.744;9.176;2023-06-26T14:46:39;4.38;;;3.13;;
80404;SDS011;69733;48.744;9.176;2023-06-26T14:49:04;4.82;;;3.10;;
80404;SDS011;69733;48.744;9.176;2023-06-26T14:51:30;5.33;;;3.77;;
80404;SDS011;69733;48.744;9.176;2023-06-26T14:53:55;5.28;;;3.65;;
80404;SDS011;69733;48.744;9.176;2023-06-26T14:56:21;5.13;;;3.15;;
80404;SDS011;69733;48.744;9.176;2023-06-26T14:58:46;6.37;;;3.53;;
80404;SDS011;69733;48.744;9.176;2023-06-26T15:01:14;5.30;;;2.72;;
80404;SDS011;69733;48.744;9.176;2023-06-26T15:03:44;4.95;;;2.80;;
80404;SDS011;69733;48.744;9.176;2023-06-26T15:06:10;5.35;;;3.17;;
80404;SDS011;69733;48.744;9.176;2023-06-26T15:08:35;4.40;;;3.20;;
80404;SDS011;69733;48.744;9.176;2023-06-26T15:11:01;5.60;;;2.90;;
80404;SDS011;69733;48.744;9.176;2023-06-26T15:13:28;4.50;;;2.78;;
80404;SDS011;69733;48.744;9.176;2023-06-26T15:15:53;4.78;;;3.30;;
80404;SDS011;69733;48.744;9.176;2023-06-26T15:18:18;3.70;;;2.53;;
80404;SDS011;69733;48.744;9.176;2023-06-26T15:20:44;4.90;;;2.50;;